Terminal Aerodrome Forecast
Issued by NWS Pueblo, CO

Home | Current Version | Previous Version | Text Only | Print | Product List | Glossary On
Versions: 1 2 3 4 5 6 7 8 9 10 11 12 13 14 15 16
000
FTUS45 KPUB 240424 AAA
TAFCOS
TAF AMD
KCOS 240424Z 2404/2424 02015G25KT P6SM VCSH SCT090 BKN140
     FM240800 35010KT P6SM FEW140 SCT200
     FM241700 17010KT P6SM FEW090 SCT200=

USA.gov is the U.S. government's official web portal to all federal, state and local government web resources and services.